createdAt,value
2022-08-08T00:01:06.755Z,4.95
2022-08-08T00:04:16.014Z,3.55
2022-08-08T00:06:52.407Z,3.28
2022-08-08T00:09:33.049Z,3.40
2022-08-08T00:12:07.626Z,3.35
2022-08-08T00:14:48.166Z,3.45
2022-08-08T00:18:01.764Z,3.05
2022-08-08T00:20:32.444Z,3.40
2022-08-08T00:23:11.886Z,4.18
2022-08-08T00:25:46.219Z,4.10
2022-08-08T00:28:35.288Z,4.55
2022-08-08T00:32:21.177Z,3.78
2022-08-08T00:34:26.982Z,4.85
2022-08-08T00:37:03.747Z,2.58
2022-08-08T00:41:08.010Z,3.20
2022-08-08T00:42:42.039Z,4.40
2022-08-08T00:45:34.810Z,4.28
2022-08-08T00:48:29.290Z,3.67
2022-08-08T00:51:15.317Z,4.40
2022-08-08T00:54:04.387Z,5.80
2022-08-08T00:56:30.912Z,3.83
2022-08-08T00:59:44.588Z,5.68
2022-08-08T01:03:15.237Z,4.10
2022-08-08T01:05:42.036Z,5.07
2022-08-08T01:08:28.740Z,3.63
2022-08-08T01:10:59.535Z,4.03
2022-08-08T01:13:52.621Z,3.70
2022-08-08T01:16:27.944Z,4.43
2022-08-08T01:19:02.687Z,4.70
2022-08-08T01:22:13.482Z,5.20
2022-08-08T01:24:53.941Z,4.30
2022-08-08T01:27:44.195Z,4.60
2022-08-08T01:30:31.406Z,5.80
2022-08-08T01:32:57.837Z,4.03
2022-08-08T01:35:44.187Z,3.78
2022-08-08T01:38:13.994Z,3.85
2022-08-08T01:40:41.276Z,4.63
2022-08-08T01:43:09.921Z,5.15
2022-08-08T01:45:54.547Z,4.20
2022-08-08T01:48:35.461Z,5.88
2022-08-08T01:51:32.278Z,3.47
2022-08-08T01:55:26.037Z,5.38
2022-08-08T01:57:09.257Z,4.72
2022-08-08T02:00:02.041Z,4.97
2022-08-08T02:02:41.903Z,5.05
2022-08-08T02:05:24.640Z,3.78
2022-08-08T02:08:10.657Z,4.97
2022-08-08T02:10:45.058Z,5.30
2022-08-08T02:13:53.303Z,4.93
2022-08-08T02:16:05.111Z,4.40
2022-08-08T02:18:39.660Z,5.00
2022-08-08T02:21:41.717Z,4.38
2022-08-08T02:24:22.875Z,4.07
2022-08-08T02:26:52.977Z,4.85
2022-08-08T02:29:51.995Z,4.60
2022-08-08T02:32:26.789Z,4.65
2022-08-08T02:35:07.971Z,4.82
2022-08-08T02:37:52.279Z,3.97
2022-08-08T02:40:45.268Z,4.25
2022-08-08T02:44:37.712Z,4.75
2022-08-08T02:46:09.183Z,5.72
2022-08-08T02:48:35.673Z,4.18
2022-08-08T02:51:11.682Z,5.68
2022-08-08T02:56:04.601Z,5.20
2022-08-08T02:58:49.729Z,6.28
2022-08-08T03:01:32.572Z,4.70
2022-08-08T03:05:04.105Z,3.92
2022-08-08T03:07:26.903Z,4.85
2022-08-08T03:10:32.893Z,4.30
2022-08-08T03:13:34.191Z,4.40
2022-08-08T03:16:34.361Z,4.10
2022-08-08T03:19:21.609Z,3.78
2022-08-08T03:21:59.101Z,4.50
2022-08-08T03:24:26.574Z,4.35
2022-08-08T03:27:18.668Z,4.53
2022-08-08T03:29:56.553Z,5.38
2022-08-08T03:32:41.936Z,6.35
2022-08-08T03:35:14.068Z,6.53
2022-08-08T03:38:53.108Z,4.10
2022-08-08T03:40:30.579Z,5.78
2022-08-08T03:42:58.792Z,4.97
2022-08-08T03:46:05.789Z,5.03
2022-08-08T03:49:09.854Z,4.90
2022-08-08T03:51:19.344Z,5.05
2022-08-08T03:53:53.366Z,5.28
2022-08-08T03:56:31.972Z,4.30
2022-08-08T03:58:59.202Z,5.53
2022-08-08T04:02:02.462Z,5.60
2022-08-08T04:04:23.094Z,4.20
2022-08-08T04:06:57.928Z,5.20
2022-08-08T04:09:28.002Z,5.45
2022-08-08T04:12:00.775Z,3.22
2022-08-08T04:14:34.123Z,4.20
2022-08-08T04:17:02.522Z,3.50
2022-08-08T04:19:30.764Z,4.95
2022-08-08T04:22:03.395Z,5.47
2022-08-08T04:24:31.133Z,4.97
2022-08-08T04:26:59.147Z,3.95
2022-08-08T04:29:26.639Z,4.55
2022-08-08T04:31:59.044Z,4.22
2022-08-08T04:34:31.892Z,5.35
2022-08-08T04:36:58.465Z,4.75
2022-08-08T04:40:04.419Z,3.58
2022-08-08T04:42:11.452Z,4.10
2022-08-08T04:44:42.432Z,4.78
2022-08-08T04:47:14.260Z,3.75
2022-08-08T04:49:59.054Z,4.53
2022-08-08T04:52:33.757Z,3.58
2022-08-08T04:55:01.895Z,3.97
2022-08-08T04:57:28.406Z,7.03
2022-08-08T04:59:55.086Z,4.93
2022-08-08T05:02:28.463Z,4.63
2022-08-08T05:04:56.784Z,4.72
2022-08-08T05:07:26.291Z,3.65
2022-08-08T05:09:52.607Z,4.60
2022-08-08T05:12:21.377Z,4.55
2022-08-08T05:14:55.442Z,6.32
2022-08-08T05:17:23.104Z,4.65
2022-08-08T05:20:09.146Z,5.80
2022-08-08T05:22:35.941Z,5.30
2022-08-08T05:25:02.932Z,6.05
2022-08-08T05:27:33.496Z,5.60
2022-08-08T05:30:10.711Z,5.18
2022-08-08T05:32:40.601Z,5.93
2022-08-08T05:35:09.686Z,5.70
2022-08-08T05:37:52.645Z,5.22
2022-08-08T05:40:27.596Z,6.03
2022-08-08T05:42:57.096Z,6.13
2022-08-08T05:45:25.438Z,7.57
2022-08-08T05:48:00.288Z,9.00
2022-08-08T05:50:28.845Z,6.30
2022-08-08T05:52:55.842Z,7.43
2022-08-08T05:55:22.197Z,6.78
2022-08-08T05:58:05.078Z,6.47
2022-08-08T06:00:33.969Z,6.60
2022-08-08T06:03:13.182Z,8.23
2022-08-08T06:05:59.195Z,7.85
2022-08-08T06:08:53.421Z,7.00
2022-08-08T06:11:22.230Z,7.70
2022-08-08T06:13:54.466Z,5.90
2022-08-08T06:16:27.619Z,7.43
2022-08-08T06:19:00.191Z,5.33
2022-08-08T06:21:33.046Z,5.95
2022-08-08T06:24:23.227Z,7.10
2022-08-08T06:27:02.487Z,5.85
2022-08-08T06:30:01.095Z,6.05
2022-08-08T06:32:30.247Z,5.18
2022-08-08T06:36:04.105Z,5.78
2022-08-08T06:37:55.676Z,5.55
2022-08-08T06:40:26.699Z,6.65
2022-08-08T06:42:56.708Z,4.88
2022-08-08T06:45:23.377Z,7.50
2022-08-08T06:47:52.732Z,6.00
2022-08-08T06:50:34.029Z,5.70
2022-08-08T06:53:13.862Z,6.40
2022-08-08T06:55:47.167Z,6.70
2022-08-08T06:58:19.837Z,5.38
2022-08-08T07:00:48.918Z,5.43
2022-08-08T07:03:52.579Z,6.93
2022-08-08T07:06:05.600Z,4.75
2022-08-08T07:08:36.396Z,7.07
2022-08-08T07:11:03.863Z,5.38
2022-08-08T07:13:37.332Z,5.82
2022-08-08T07:16:12.193Z,5.78
2022-08-08T07:18:55.874Z,6.47
2022-08-08T07:21:27.471Z,6.20
2022-08-08T07:24:03.749Z,6.78
2022-08-08T07:26:32.844Z,4.80
2022-08-08T07:29:05.379Z,7.13
2022-08-08T07:31:35.548Z,4.88
2022-08-08T07:34:03.500Z,7.18
2022-08-08T07:36:35.602Z,6.25
2022-08-08T07:39:03.796Z,8.70
2022-08-08T07:42:03.636Z,7.80
2022-08-08T07:44:37.398Z,7.28
2022-08-08T07:47:05.307Z,9.30
2022-08-08T07:49:32.240Z,8.55
2022-08-08T07:51:59.126Z,7.20
2022-08-08T07:54:39.889Z,8.25
2022-08-08T07:57:25.707Z,8.15
2022-08-08T08:00:13.435Z,7.70
2022-08-08T08:03:01.717Z,7.25
2022-08-08T08:05:32.968Z,4.95
2022-08-08T08:08:04.692Z,7.82
2022-08-08T08:10:33.360Z,6.00
2022-08-08T08:13:25.286Z,7.28
2022-08-08T08:16:00.586Z,5.72
2022-08-08T08:18:33.286Z,6.30
2022-08-08T08:21:03.841Z,6.10
2022-08-08T08:23:40.542Z,5.20
2022-08-08T08:26:07.156Z,5.13
2022-08-08T08:28:34.103Z,5.28
2022-08-08T08:31:04.806Z,5.07
2022-08-08T08:33:31.991Z,4.47
2022-08-08T08:36:19.524Z,5.32
2022-08-08T08:38:49.454Z,8.48
2022-08-08T08:41:20.137Z,8.82
2022-08-08T08:43:50.158Z,5.88
2022-08-08T08:46:25.985Z,10.05
2022-08-08T08:48:53.462Z,8.30
2022-08-08T08:51:20.065Z,10.20
2022-08-08T08:53:56.051Z,8.52
2022-08-08T08:56:26.608Z,9.32
2022-08-08T08:58:55.845Z,7.72
2022-08-08T09:01:24.282Z,7.18
2022-08-08T09:03:51.720Z,7.28
2022-08-08T09:06:26.589Z,5.65
2022-08-08T09:08:56.713Z,6.38
2022-08-08T09:11:23.719Z,6.55
2022-08-08T09:13:51.141Z,7.13
2022-08-08T09:16:20.403Z,5.57
2022-08-08T09:18:55.104Z,5.20
2022-08-08T09:22:02.630Z,3.95
2022-08-08T09:24:09.458Z,8.45
2022-08-08T09:26:56.514Z,5.20
2022-08-08T09:29:24.938Z,4.18
2022-08-08T09:32:00.656Z,5.18
2022-08-08T09:34:32.854Z,6.57
2022-08-08T09:37:39.631Z,4.45
2022-08-08T09:40:24.136Z,5.75
2022-08-08T09:43:02.171Z,5.55
2022-08-08T09:46:03.272Z,9.98
2022-08-08T09:48:35.425Z,5.38
2022-08-08T09:51:05.070Z,6.65
2022-08-08T09:53:59.869Z,7.72
2022-08-08T09:56:24.946Z,7.97
2022-08-08T09:59:32.038Z,6.15
2022-08-08T10:02:02.296Z,8.00
2022-08-08T10:04:41.886Z,7.78
2022-08-08T10:07:13.919Z,5.15
2022-08-08T10:10:00.758Z,6.13
2022-08-08T10:12:37.789Z,5.95
2022-08-08T10:15:17.518Z,6.05
2022-08-08T10:18:06.050Z,6.47
2022-08-08T10:20:58.113Z,5.10
2022-08-08T10:23:42.861Z,7.65
2022-08-08T10:26:29.716Z,6.43
2022-08-08T10:29:20.813Z,5.80
2022-08-08T10:32:06.360Z,5.93
2022-08-08T10:34:35.033Z,7.30
2022-08-08T10:37:01.772Z,6.50
2022-08-08T10:39:53.811Z,7.53
2022-08-08T10:42:22.657Z,5.22
2022-08-08T10:44:59.630Z,6.40
2022-08-08T10:47:30.623Z,6.18
2022-08-08T10:50:10.695Z,10.02
2022-08-08T10:52:42.549Z,6.72
2022-08-08T10:55:39.885Z,9.60
2022-08-08T10:58:06.144Z,11.13
2022-08-08T11:00:35.658Z,7.90
2022-08-08T11:03:15.780Z,9.13
2022-08-08T11:05:43.629Z,8.85
2022-08-08T11:08:37.733Z,7.07
2022-08-08T11:11:08.087Z,6.90
2022-08-08T11:13:59.968Z,11.05
2022-08-08T11:16:32.326Z,11.40
2022-08-08T11:19:00.072Z,5.22
2022-08-08T11:21:35.212Z,8.30
2022-08-08T11:24:05.073Z,7.40
2022-08-08T11:26:38.308Z,8.95
2022-08-08T11:29:21.702Z,9.55
2022-08-08T11:31:50.589Z,10.43
2022-08-08T11:34:23.329Z,6.03
2022-08-08T11:39:19.924Z,6.15
2022-08-08T11:41:47.763Z,6.13
2022-08-08T11:44:19.087Z,5.50
2022-08-08T11:46:57.828Z,6.05
2022-08-08T11:49:25.425Z,5.80
2022-08-08T11:51:54.583Z,6.72
2022-08-08T11:54:33.453Z,10.05
2022-08-08T11:57:14.639Z,7.25
2022-08-08T12:00:00.862Z,5.28
2022-08-08T12:02:33.142Z,6.63
2022-08-08T12:05:00.631Z,5.28
2022-08-08T12:07:27.846Z,6.65
2022-08-08T12:09:59.544Z,7.68
2022-08-08T12:12:31.237Z,6.88
2022-08-08T12:15:01.462Z,8.02
2022-08-08T12:17:36.227Z,6.18
2022-08-08T12:20:05.733Z,9.68
2022-08-08T12:22:44.819Z,6.60
2022-08-08T12:25:19.340Z,4.47
2022-08-08T12:27:52.173Z,6.47
2022-08-08T12:30:31.803Z,6.10
2022-08-08T12:33:00.228Z,9.30
2022-08-08T12:35:27.791Z,4.13
2022-08-08T12:38:17.750Z,5.95
2022-08-08T12:40:57.064Z,6.32
2022-08-08T12:43:31.993Z,4.60
2022-08-08T12:46:19.060Z,4.90
2022-08-08T12:49:22.228Z,4.35
2022-08-08T12:51:53.705Z,5.65
2022-08-08T12:54:25.729Z,4.72
2022-08-08T12:56:52.597Z,3.15
2022-08-08T12:59:27.362Z,4.18
2022-08-08T13:02:20.586Z,4.45
2022-08-08T13:04:49.864Z,6.05
2022-08-08T13:07:17.769Z,3.35
2022-08-08T13:10:10.638Z,5.15
2022-08-08T13:12:41.620Z,5.07
2022-08-08T13:18:08.973Z,4.50
2022-08-08T13:20:27.660Z,5.32
2022-08-08T13:23:20.169Z,4.32
2022-08-08T13:25:42.627Z,5.47
2022-08-08T13:28:09.680Z,4.22
2022-08-08T13:30:36.234Z,4.97
2022-08-08T13:33:03.996Z,5.05
2022-08-08T13:35:38.918Z,4.80
2022-08-08T13:38:08.611Z,5.40
2022-08-08T13:40:40.978Z,3.60
2022-08-08T13:43:08.006Z,3.80
2022-08-08T13:45:35.293Z,6.57
2022-08-08T13:48:03.972Z,3.90
2022-08-08T13:50:49.202Z,6.68
2022-08-08T13:53:34.258Z,2.90
2022-08-08T13:56:11.503Z,5.03
2022-08-08T13:59:00.005Z,5.40
2022-08-08T14:01:41.857Z,5.68
2022-08-08T14:04:20.169Z,3.00
2022-08-08T14:06:47.291Z,3.35
2022-08-08T14:09:24.258Z,4.53
2022-08-08T14:11:57.806Z,7.90
2022-08-08T14:14:34.148Z,3.42
2022-08-08T14:17:02.701Z,4.25
2022-08-08T14:19:57.718Z,4.07
2022-08-08T14:22:25.633Z,5.32
2022-08-08T14:24:56.473Z,4.20
2022-08-08T14:27:33.394Z,3.72
2022-08-08T14:30:02.049Z,3.05
2022-08-08T14:32:30.435Z,3.22
2022-08-08T14:34:58.556Z,3.97
2022-08-08T14:37:28.033Z,3.97
2022-08-08T14:40:10.668Z,3.85
2022-08-08T14:42:55.055Z,4.65
2022-08-08T14:45:33.422Z,6.68
2022-08-08T14:48:10.735Z,2.90
2022-08-08T14:50:39.158Z,3.47
2022-08-08T14:53:05.913Z,3.10
2022-08-08T14:55:41.154Z,3.85
2022-08-08T14:58:16.166Z,4.95
2022-08-08T15:00:44.389Z,3.67
2022-08-08T15:03:14.969Z,2.95
2022-08-08T15:05:52.449Z,3.15
2022-08-08T15:08:33.469Z,4.60
2022-08-08T15:11:02.337Z,2.35
2022-08-08T15:13:40.094Z,4.78
2022-08-08T15:16:17.286Z,6.53
2022-08-08T15:18:51.607Z,3.05
2022-08-08T15:21:18.698Z,3.58
2022-08-08T15:23:50.977Z,4.32
2022-08-08T15:26:18.881Z,3.72
2022-08-08T15:28:45.274Z,2.60
2022-08-08T15:31:11.700Z,1.55
2022-08-08T15:33:58.837Z,2.00
2022-08-08T15:36:28.469Z,3.42
2022-08-08T15:38:55.247Z,3.95
2022-08-08T15:41:24.613Z,2.80
2022-08-08T15:44:00.830Z,4.45
2022-08-08T15:46:34.811Z,2.13
2022-08-08T15:49:01.744Z,1.70
2022-08-08T15:51:33.595Z,3.85
2022-08-08T15:54:00.644Z,2.10
2022-08-08T15:56:26.903Z,2.72
2022-08-08T15:58:53.231Z,2.90
2022-08-08T16:01:21.025Z,2.90
2022-08-08T16:03:51.989Z,2.88
2022-08-08T16:06:27.836Z,2.75
2022-08-08T16:13:02.095Z,2.67
2022-08-08T16:13:04.200Z,2.67
2022-08-08T16:14:32.790Z,4.10
2022-08-08T16:16:59.823Z,4.00
2022-08-08T16:19:26.923Z,2.00
2022-08-08T16:21:54.101Z,1.67
2022-08-08T16:24:22.885Z,3.33
2022-08-08T16:26:49.367Z,3.45
2022-08-08T16:29:37.026Z,2.72
2022-08-08T16:32:04.211Z,4.60
2022-08-08T16:34:40.063Z,2.75
2022-08-08T16:37:07.143Z,3.35
2022-08-08T16:40:00.606Z,3.72
2022-08-08T16:42:19.771Z,1.73
2022-08-08T16:44:53.934Z,1.90
2022-08-08T16:47:40.409Z,2.92
2022-08-08T16:50:13.223Z,2.58
2022-08-08T16:55:23.626Z,2.33
2022-08-08T16:55:55.139Z,4.97
2022-08-08T16:58:18.482Z,3.10
2022-08-08T17:00:48.958Z,2.22
2022-08-08T17:03:18.183Z,2.05
2022-08-08T17:05:53.484Z,1.90
2022-08-08T17:08:20.328Z,3.17
2022-08-08T17:10:57.756Z,2.97
2022-08-08T17:15:53.987Z,2.05
2022-08-08T17:18:20.616Z,2.15
2022-08-08T17:20:51.245Z,1.95
2022-08-08T17:23:58.564Z,1.52
2022-08-08T17:26:05.136Z,2.17
2022-08-08T17:28:35.334Z,2.13
2022-08-08T17:31:43.448Z,3.70
2022-08-08T17:34:53.146Z,2.08
2022-08-08T17:36:36.795Z,2.38
2022-08-08T17:39:05.152Z,4.32
2022-08-08T17:41:49.605Z,1.63
2022-08-08T17:44:26.944Z,2.63
2022-08-08T17:46:55.391Z,2.95
2022-08-08T17:49:28.718Z,1.77
2022-08-08T17:52:09.068Z,2.97
2022-08-08T17:54:35.591Z,2.75
2022-08-08T17:57:04.525Z,3.33
2022-08-08T17:59:36.415Z,2.33
2022-08-08T18:02:18.639Z,1.80
2022-08-08T18:08:03.375Z,3.55
2022-08-08T18:12:29.364Z,2.92
2022-08-08T18:14:55.688Z,2.13
2022-08-08T18:18:05.257Z,3.42
2022-08-08T18:20:42.878Z,4.10
2022-08-08T18:22:59.067Z,1.88
2022-08-08T18:25:25.570Z,2.40
2022-08-08T18:27:54.932Z,1.80
2022-08-08T18:30:21.214Z,2.35
2022-08-08T18:32:48.428Z,3.08
2022-08-08T18:35:17.505Z,2.83
2022-08-08T18:37:47.903Z,2.05
2022-08-08T18:40:14.957Z,3.35
2022-08-08T18:42:50.161Z,3.72
2022-08-08T18:46:00.272Z,2.00
2022-08-08T18:50:33.976Z,2.28
2022-08-08T18:53:05.964Z,2.13
2022-08-08T18:55:33.627Z,3.92
2022-08-08T18:57:59.950Z,5.80
2022-08-08T19:00:26.251Z,8.18
2022-08-08T19:02:55.474Z,4.18
2022-08-08T19:05:30.584Z,10.18
2022-08-08T19:08:02.303Z,7.43
2022-08-08T19:10:29.279Z,5.75
2022-08-08T19:12:56.563Z,11.85
2022-08-08T19:15:23.924Z,12.25
2022-08-08T19:18:33.617Z,11.60
2022-08-08T19:20:46.833Z,15.98
2022-08-08T19:23:13.179Z,14.55
2022-08-08T19:26:22.527Z,11.15
2022-08-08T19:28:26.712Z,11.43
2022-08-08T19:31:04.254Z,13.32
2022-08-08T19:33:51.916Z,9.02
2022-08-08T19:36:27.434Z,16.73
2022-08-08T19:38:54.369Z,12.82
2022-08-08T19:41:21.483Z,16.27
2022-08-08T19:44:02.761Z,10.25
2022-08-08T19:46:33.455Z,14.75
2022-08-08T19:49:00.634Z,14.50
2022-08-08T19:51:34.694Z,15.38
2022-08-08T19:54:06.960Z,16.23
2022-08-08T19:56:40.859Z,9.20
2022-08-08T19:59:08.299Z,16.70
2022-08-08T20:02:01.066Z,11.15
2022-08-08T20:04:21.023Z,17.67
2022-08-08T20:06:50.844Z,11.88
2022-08-08T20:09:22.648Z,16.92
2022-08-08T20:11:49.639Z,9.32
2022-08-08T20:14:31.929Z,10.65
2022-08-08T20:17:01.430Z,7.05
2022-08-08T20:19:33.539Z,6.05
2022-08-08T20:22:20.768Z,5.63
2022-08-08T20:24:55.465Z,6.78
2022-08-08T20:27:21.772Z,7.53
2022-08-08T20:29:55.614Z,6.18
2022-08-08T20:32:28.250Z,7.55
2022-08-08T20:35:01.207Z,8.63
2022-08-08T20:37:46.977Z,4.65
2022-08-08T20:40:16.698Z,7.68
2022-08-08T20:42:49.689Z,5.55
2022-08-08T20:45:55.343Z,9.05
2022-08-08T20:48:07.713Z,7.25
2022-08-08T20:50:35.153Z,6.55
2022-08-08T20:53:01.599Z,6.30
2022-08-08T20:55:29.028Z,7.63
2022-08-08T20:58:02.257Z,4.32
2022-08-08T21:00:28.852Z,6.40
2022-08-08T21:02:56.830Z,4.18
2022-08-08T21:05:23.391Z,4.60
2022-08-08T21:08:36.186Z,5.22
2022-08-08T21:10:44.534Z,7.72
2022-08-08T21:13:11.154Z,5.00
2022-08-08T21:16:06.290Z,4.80
2022-08-08T21:18:24.790Z,3.60
2022-08-08T21:20:54.392Z,3.70
2022-08-08T21:23:25.164Z,4.72
2022-08-08T21:26:07.203Z,4.63
2022-08-08T21:28:36.225Z,3.72
2022-08-08T21:31:05.829Z,4.15
2022-08-08T21:33:49.886Z,5.35
2022-08-08T21:36:20.450Z,2.38
2022-08-08T21:38:47.239Z,4.05
2022-08-08T21:41:28.698Z,5.47
2022-08-08T21:43:59.990Z,2.20
2022-08-08T21:48:07.951Z,4.60
2022-08-08T21:49:13.031Z,4.63
2022-08-08T21:54:17.328Z,5.35
2022-08-08T21:54:53.548Z,3.97
2022-08-08T21:57:16.428Z,1.63
2022-08-08T22:00:02.813Z,3.58
2022-08-08T22:02:30.394Z,3.00
2022-08-08T22:04:59.205Z,3.92
2022-08-08T22:07:39.641Z,4.10
2022-08-08T22:10:09.320Z,2.25
2022-08-08T22:12:35.961Z,2.95
2022-08-08T22:15:04.288Z,3.33
2022-08-08T22:17:31.470Z,3.42
2022-08-08T22:20:23.709Z,3.20
2022-08-08T22:22:54.588Z,5.07
2022-08-08T22:25:25.002Z,2.20
2022-08-08T22:28:02.658Z,1.92
2022-08-08T22:30:31.457Z,4.60
2022-08-08T22:32:57.751Z,2.58
2022-08-08T22:35:27.478Z,4.50
2022-08-08T22:38:13.906Z,3.42
2022-08-08T22:40:45.296Z,4.38
2022-08-08T22:43:15.568Z,5.13
2022-08-08T22:45:43.242Z,2.70
2022-08-08T22:48:13.927Z,3.55
2022-08-08T22:50:40.409Z,3.53
2022-08-08T22:54:29.301Z,2.17
2022-08-08T22:55:59.230Z,3.03
2022-08-08T22:58:28.865Z,3.17
2022-08-08T23:00:55.449Z,1.73
2022-08-08T23:03:21.784Z,3.00
2022-08-08T23:05:49.439Z,3.35
2022-08-08T23:08:17.877Z,2.65
2022-08-08T23:10:46.410Z,2.63
2022-08-08T23:13:19.546Z,2.33
2022-08-08T23:16:40.923Z,2.88
2022-08-08T23:18:34.880Z,2.72
2022-08-08T23:21:04.485Z,1.80
2022-08-08T23:23:32.258Z,3.63
2022-08-08T23:26:14.804Z,3.13
2022-08-08T23:28:41.339Z,2.90
2022-08-08T23:31:07.640Z,3.25
2022-08-08T23:34:15.297Z,4.10
2022-08-08T23:36:26.097Z,3.55
2022-08-08T23:38:52.948Z,2.70
2022-08-08T23:41:24.641Z,3.33
2022-08-08T23:43:56.804Z,2.90
2022-08-08T23:49:05.805Z,3.28
2022-08-08T23:49:18.086Z,2.70
2022-08-08T23:52:04.884Z,4.93
2022-08-08T23:54:42.319Z,3.58
2022-08-08T23:57:27.700Z,2.90
